Hollister, Florida
Current Conditions -  °F | °C
As of 10:55 AM on Wednesday 26 Nov 2014 (Local Time) from K28J Reporting Station
Broken Clouds Broken Clouds  
Wind Chill: 52°   Ceiling: 6000
Heat Index: 52°   Visibility: 10mi
Dew Point: 50°   Wind: 7mph
Humidity: 94%   Direction: 310°NW
Pressure: 30.13"   Gusts: NA
Location:  29.62°N, 81.81°W
Report Text: K28J 261555Z AUTO 31006KT 10SM SCT013 SCT047 BKN060 11/10 A3013 RMK AO2
Loading
Personal Weather Stations






























Interactive Weather Map New forecast layout! Learn more

10-Day Weather Forecast

Advertisements
Track Severe Weather on mobile